This is the latest recevied weather packets stored in our database for station/object JF7ELG-13. If no packets are shown the sender has not sent any weather packets the latest 10 day(s).
| Time | Temp. | Humidity | Pressure | Rain* | Wind** | Luminosity | Snow |
|---|---|---|---|---|---|---|---|
| 1777757611 | 12.78° C | 82% | 1010.3 hPa | 0 mm | - | - | - |
| 1777756717 | 12.22° C | 82% | 1010.3 hPa | 0 mm | - | - | - |
| 1777755831 | 12.22° C | 79% | 1010 hPa | 0 mm | - | - | - |
| 1777754905 | 12.22° C | 74% | 1010 hPa | 0 mm | - | - | - |
| 1777754008 | 11.67° C | 79% | 1009.6 hPa | 0 mm | - | - | - |
| 1777753128 | 11.11° C | 78% | 1009.4 hPa | 0 mm | - | - | - |
| 1777752196 | 11.11° C | 80% | 1009.2 hPa | 0 mm | - | - | - |
| 1777751315 | 11.67° C | 76% | 1009.2 hPa | 0 mm | - | - | - |
| 1777750403 | 11.11° C | 77% | 1009.3 hPa | 0 mm | - | - | - |
| 1777749501 | 11.11° C | 77% | 1009.4 hPa | 0 mm | - | - | - |
| 1777748621 | 12.78° C | 70% | 1009.3 hPa | 0 mm | - | - | - |
| 1777747700 | 12.22° C | 71% | 1009.4 hPa | 0 mm | - | - | - |
| 1777746812 | 11.67° C | 75% | 1009.3 hPa | 0 mm | - | - | - |
| 1777745924 | 10.56° C | 79% | 1009.1 hPa | 0 mm | - | - | - |
| 1777745021 | 9.44° C | 82% | 1009.1 hPa | 0 mm | - | - | - |
| 1777744130 | 10° C | 79% | 1009 hPa | 0 mm | - | - | - |
| 1777743230 | 9.44° C | 81% | 1009.2 hPa | 0 mm | - | - | - |
| 1777742298 | 8.89° C | 83% | 1009.4 hPa | 0 mm | - | - | - |
| 1777741420 | 10° C | 78% | 1009.4 hPa | 0 mm | - | - | - |
| 1777740505 | 8.89° C | 82% | 1009.4 hPa | 0 mm | - | - | - |
| 1777739626 | 9.44° C | 80% | 1009.3 hPa | 0 mm | - | - | - |
| 1777738743 | 9.44° C | 81% | 1009.2 hPa | 0 mm | - | - | - |
| 1777737830 | 9.44° C | 79% | 1009.4 hPa | 0 mm | - | - | - |
| 1777736894 | 8.89° C | 83% | 1009.3 hPa | 0 mm | - | - | - |
| 1777736008 | 8.89° C | 81% | 1009.1 hPa | 0 mm | - | - | - |
* Rain latest hour (hover to see other rain measurements)
** Current wind speed in m/s (hover to see current wind gust speed)